Baton Rouge Metropolitan, Ryan Field
KBTR : now visible

Aeroporto :











RITROVATECI SU...

 
LOGIN :

Iscrizione | Disclaimer

   EN    FR    IT 

 









Sommario :    VFR   VFR Marginale   IFR   IFR Intensivo   IFR Molto Intensivo
Visibilità : 
Base nubi : 
>= 8 km
>= 3000ft
5 / 8 km
1000 / 3000 ft
1500m / 5 km
500 / 1000 ft
800 / 1500m
200 / 500 ft
< 800m
< 200 ft
Simboli :   Temporali  Nebbia  Neve Forte  Precipitazioni Forti  Vento > 20 kt







- Altitudine del aeroporto : 70 ft
- Codice IATA : BTR


KBTR - Baton Rouge Metropolitan, Ryan Field

ULTIMO METAR :
  • 182253Z 25010KT 10SM VCTS SCT049 33/23 A2999 RMK AO2 LTG DSNT N AND E SLP152 T03330228

METARs OBSOLETI :
  • 182225Z 22007KT 10SM VCTS SCT049 34/24 A2999 RMK AO2 LTG DSNT N T03390239
  • 182153Z 23007KT 10SM SCT050 SCT100 34/23 A3000 RMK AO2 LTG DSNT NW SLP155 T03390228
  • 182053Z 18009KT 10SM BKN047 OVC060 33/23 A3001 RMK AO2 SLP160 T03280233 56020

TAF KBTR
Valido dal 18 a 18 ore il 19 a 18 ore UTC


181720Z 1818/1918 VRB04KT P6SM FEW035 SCT100
FM191300 00000KT P6SM SCT020 OVC040
FM191700 VRB03KT P6SM FEW040 SCT060
FIR KZHU / America del Nord



MetMap, La meteo Aeronautica in un colpo d'occhio ! - Copyright ORBIFLY Dicembre 2007 - Disclaimer

ORBIFLY MET'MAP TEAM :

Programmazione e sviluppo : Alexandra Zaïnal
Concezione e sviluppo : Baudouin d'Aumeries
Co-Programmazione e sviluppo : Marc-Olivier Méhu
Supporto tecnico e logistico : Manuel Goepfert
Aiuto per la traduzione : Arnaldo La Scala

Contatto : metmap@orbifly.com




FONTI E CREDITI :

   NOAA       Earth
Advisory